François Noël

Scout - Olympique Lyonnais
19 Aug 2027
Donnerstag
Verarbeitung

Persönlichkeit

Anpassungsfähigkeit (19) Ehrgeiz (2) Kontroverse (3) Loyalität (10) Druck (5) Professionalität (11) Fairness (18) Temperament (13)

Profil

Trainerstil Demokratisch
Lizenz Kontinentale B
Entschlossenheit 15
Menschenführung 7
Motivation 15
Disziplin 14
Arbeitszufriedenheit
72%
Ermüdung
0%
Rolle Scout
Gehalt 18.9K p/W
Vertrag 14.03.2028

Leistung

Verhalten Gut
Trainingseffektivität
33%
Spielerentwicklung
65%
Verletzungsprävention
45%
Taktische Umsetzung
70%

Letzte Ereignisse

Nahm an einer Scouting-Besprechung teil 7T her
Nahm an einer Scouting-Besprechung teil 7T her
Nahm an einer Scouting-Besprechung teil 14T her
Nahm an einer Scouting-Besprechung teil 14T her
Nahm an einer Scouting-Besprechung teil 21T her
Nahm an einer Scouting-Besprechung teil 21T her
Nahm an einer Scouting-Besprechung teil 28T her
Nahm an einer Scouting-Besprechung teil 28T her

Aktuell beobachtet

182
Spieler Verein Status Fähigkeit Vertrauen Beobachtet Zuletzt beobachtet Letzte Stimme
Félix Lemaréchal Club Brugge Aktiv 139 / 141 40% 13 31.05.2027 -
Mohamed Belloumi Hull City Aktiv 137 / 134 40% 1 31.05.2027 -
Borja Sainz Fiorentina Aktiv 145 / 147 40% 2 30.05.2027 -
Adriano Bertaccini Anderlecht Aktiv 125 / 122 40% 3 30.05.2027 -
Alexis Saelemaekers AC Milan Aktiv 149 / 153 40% 3 30.05.2027 -
Kenan Yıldız Juventus Aktiv 161 / 165 40% 2 30.05.2027 -
Shea Charles Southampton Aktiv 134 / 135 40% 1 30.05.2027 -
Dango Ouattara Brentford Aktiv 150 / 148 40% 7 28.05.2027 -
Francisco Conceição Juventus Aktiv 155 / 157 40% 4 28.05.2027 -
Jacob Ramsey Newcastle United Aktiv 157 / 153 40% 4 28.05.2027 -
Jason Knight Bristol City Aktiv 126 / 126 40% 1 28.05.2027 -
Kasey McAteer Ipswich Town Aktiv 133 / 129 40% 1 28.05.2027 -
Tiago Santos LOSC Lille Aktiv 147 / 140 40% 6 27.05.2027 -
Callum Hudson-Odoi Nottingham Forest Aktiv 149 / 150 40% 6 23.05.2027 Beobachten
Sofiane Diop OGC Nice Aktiv 148 / 141 40% 8 21.05.2027 -
Léo Scienza Southampton Aktiv 136 / 139 40% 7 20.05.2027 -
Xavi Simons Tottenham Aktiv 160 / 159 40% 6 19.05.2027 -
Matías Soulé AS Roma Aktiv 154 / 157 40% 2 19.05.2027 -
Marcus Edwards Burnley Aktiv 137 / 139 40% 2 19.05.2027 -
Erick Sánchez OGC Nice Aktiv 142 / 142 40% 7 18.05.2027 -
Nicolas Jackson Aston Villa Aktiv 149 / 150 40% 3 18.05.2027 Beobachten
Osame Sahraoui LOSC Lille Aktiv 150 / 146 40% 7 17.05.2027 -
Vitinha Paris Saint-Germain Aktiv 173 / 174 40% 7 16.05.2027 -
Alejandro Zendejas Club America Aktiv 141 / 146 40% 4 13.05.2027 -
Amine Adli Bournemouth Aktiv 146 / 141 40% 2 13.05.2027 -
Giacomo Raspadori Atalanta Aktiv 146 / 146 40% 5 11.05.2027 -
Mario Stroeykens Anderlecht Aktiv 132 / 128 40% 2 11.05.2027 -
Morgan Whittaker Middlesbrough Aktiv 135 / 134 40% 2 10.05.2027 -
Finn Azaz Southampton Aktiv 134 / 129 40% 3 10.05.2027 -
Curtis Jones Inter Aktiv 160 / 157 40% 6 09.05.2027 -
Lucas Høgsberg RC Strasbourg Aktiv 131 / 137 40% 1 09.05.2027 -
Cheveyo Tsawa Club Brugge Aktiv 120 / 125 40% 1 09.05.2027 -
João Simões Sporting CP Aktiv 128 / 140 40% 1 09.05.2027 -
Mikkel Damsgaard Brentford Aktiv 146 / 147 40% 1 06.05.2027 -
Percy Jali Free State Stars Aktiv 90 / 101 40% 1 04.05.2027 -
Pape Diong Westerlo Aktiv 107 / 122 40% 1 04.05.2027 -
Jofre Torrents Ajax Aktiv 125 / 131 40% 1 04.05.2027 -
Jan Virgili Club Brugge Aktiv 131 / 138 40% 11 02.05.2027 -
Welington Southampton Aktiv 130 / 132 40% 1 02.05.2027 -
Mats Wieffer Brighton Aktiv 146 / 144 40% 5 01.05.2027 -
Amadou Onana Aston Villa Aktiv 160 / 157 40% 5 01.05.2027 -
Hákon Arnar Haraldsson LOSC Lille Aktiv 152 / 152 40% 4 29.04.2027 -
Ismaïla Sarr Crystal Palace Aktiv 152 / 148 40% 1 29.04.2027 -
Kiernan Dewsbury-Hall Everton Aktiv 153 / 145 40% 7 27.04.2027 -
Carlos Vicente Birmingham Aktiv 145 / 140 40% 3 27.04.2027 -
Rémi Lemoine Chamois Niortais Aktiv 165 / 157 40% 6 26.04.2027 -
Carlos Alcaraz Everton Aktiv 147 / 142 40% 1 26.04.2027 -
Aimé Omgba KAA Gent Aktiv 122 / 120 40% 4 24.04.2027 -
Joaquín Panichelli Le Havre AC Aktiv 147 / 141 40% 6 24.04.2027 -
Jack Rudoni Coventry City Aktiv 138 / 135 40% 1 24.04.2027 -
Yeremy Pino Crystal Palace Aktiv 151 / 150 40% 2 20.04.2027 -
Diego Lainez Tigres Aktiv 136 / 127 40% 2 19.04.2027 -
Kevin Fulham Aktiv 143 / 152 40% 3 16.04.2027 -
Ilan Kebbal Paris FC Aktiv 138 / 140 40% 1 13.04.2027 -
Georginio Rutter Brighton Aktiv 147 / 148 40% 1 10.04.2027 -
Ryan Sessegnon Fulham Aktiv 145 / 142 40% 5 09.04.2027 -
João Neves Paris Saint-Germain Aktiv 160 / 174 40% 4 08.04.2027 -
Vanderson Monaco Aktiv 151 / 139 40% 1 02.04.2027 -
Yann Gboho Toulouse FC Aktiv 140 / 133 40% 1 30.03.2027 -
Daan Heymans Racing Genk Aktiv 128 / 128 40% 3 28.03.2027 -
Thibaud Verlinden OH Leuven Aktiv 126 / 123 40% 2 22.03.2027 -
Matt O'Riley Brighton Aktiv 142 / 143 40% 6 22.03.2027 -
Killian Cahill Leyton Orient Aktiv 109 / 103 40% 4 21.03.2027 -
Michael Cooper Sheffield United Aktiv 129 / 133 40% 1 21.03.2027 -
Murphy Cooper Plymouth Argyle Aktiv 118 / 111 40% 1 21.03.2027 -
Radek Vítek Middlesbrough Aktiv 139 / 136 40% 3 18.03.2027 -
James Trafford Leeds United Aktiv 144 / 144 40% 2 18.03.2027 -
Jonathan Fischer FC Metz Aktiv 134 / 128 40% 2 18.03.2027 -
Ilay Camara Anderlecht Aktiv 128 / 132 40% 2 16.03.2027 -
Thomas De Bruyne Mouscron Aktiv 129 / 131 40% 3 16.03.2027 -
Marcelin Mbahbi Cotonsport Garoua Aktiv 102 / 92 40% 3 16.03.2027 -
Rodrigo Zalazar Sporting CP Aktiv 157 / 150 40% 2 15.03.2027 -
Erick Reyes Toluca Aktiv 149 / 142 40% 2 14.03.2027 -
Razvan Balasa Crvena Zvezda Aktiv 154 / 145 40% 2 12.03.2027 -
Adriel Torreense Aktiv 124 / 120 40% 2 11.03.2027 -
Bradley Mabunda SuperSport United Aktiv 113 / 112 40% 2 11.03.2027 -
Yehvann Diouf OGC Nice Aktiv 143 / 142 40% 2 11.03.2027 -
N'Golo Traoré Stade Malien Aktiv 98 / 103 40% 1 09.03.2027 -
Raúl Rangel Sporting CP Aktiv 135 / 139 40% 1 09.03.2027 -
Lukas Jensen Millwall Aktiv 122 / 115 40% 2 06.03.2027 -
Kostantis Tzolakis Hull City Aktiv 143 / 141 40% 1 06.03.2027 Mehr Infos nötig
Mathieu Patouillet Stade Brestois Aktiv 121 / 118 40% 3 05.03.2027 -
Beau Reus Waasland-Beveren Aktiv 131 / 124 40% 2 05.03.2027 -
George Wickens Lincoln City Aktiv 119 / 116 40% 1 05.03.2027 -
Nico González Newcastle United Aktiv 161 / 164 40% 4 02.03.2027 -
Ansu Fati Monaco Aktiv 139 / 143 40% 3 02.03.2027 -
Jesús Angulo Tigres Aktiv 130 / 142 40% 1 01.03.2027 -
Zach Hemming Chesterfield Aktiv 105 / 111 40% 2 28.02.2027 -
Alvin Binsto PWD Bamenda Aktiv 81 / 82 40% 1 28.02.2027 -
Robin Roefs Sunderland Aktiv 150 / 146 40% 3 27.02.2027 -
Cezary Miszta Rio Ave Aktiv 133 / 131 40% 1 27.02.2027 -
Ritsu Doan Benfica Aktiv 154 / 152 40% 1 22.02.2027 -
Guillaume Restes Toulouse FC Aktiv 138 / 136 40% 1 21.02.2027 -
Anatolii Trubin Juventus Aktiv 157 / 152 40% 1 21.02.2027 -
Mads Hermansen West Ham United Aktiv 135 / 137 40% 3 20.02.2027 -
Christian Tielemans KV Oostende Aktiv 145 / 146 40% 4 19.02.2027 -
Marcelo Allende Mamelodi Sundowns Aktiv 131 / 128 40% 1 19.02.2027 -
Petar Stanić Ludogorets Aktiv 141 / 136 40% 1 16.02.2027 -
Leo Kokubo Sint-Truiden Aktiv 114 / 114 40% 1 14.02.2027 -
Berke Özer LOSC Lille Aktiv 142 / 136 40% 1 14.02.2027 -
Senne Lammens Manchester United Aktiv 154 / 147 40% 3 13.02.2027 -
Héctor Holguín Veracruz Aktiv 117 / 107 40% 1 13.02.2027 -
Bradley Locko Stade Brestois Aktiv 137 / 137 40% 1 07.02.2027 -
Alkalifa Coulibaly Onze Createurs Aktiv 97 / 102 40% 1 07.02.2027 -
Patrik Gunnarsson KV Kortrijk Aktiv 123 / 123 40% 1 04.02.2027 -
Grégoire Coudert Burnley Aktiv 131 / 127 40% 1 04.02.2027 -
Thorgan Witsel KV Oostende Aktiv 137 / 131 40% 3 01.02.2027 -
Ludovic Blas Stade Rennais Aktiv 142 / 146 40% 1 01.02.2027 -
Orbelín Pineda Monterrey Aktiv 135 / 133 40% 3 30.12.2026 -
João Pedro Chelsea Aktiv 157 / 155 40% 2 30.12.2026 -
Jeremie Frimpong Liverpool Aktiv 163 / 160 40% 3 29.12.2026 -
Khvicha Kvaratskhelia Paris Saint-Germain Aktiv 168 / 168 40% 5 29.12.2026 -
Achraf Hakimi Paris Saint-Germain Aktiv 181 / 176 40% 11 26.12.2026 Beobachten
Noah Sadiki Sunderland Aktiv 147 / 151 40% 1 26.12.2026 -
Jeppe Erenbjerg Racing Genk Aktiv 124 / 115 40% 2 25.12.2026 -
Agustín Palavecino Cruz Azul Aktiv 128 / 139 40% 2 22.12.2026 -
Noussair Mazraoui Manchester United Aktiv 150 / 151 40% 3 21.12.2026 -
Taiga Hata Sint-Truiden Aktiv 128 / 123 40% 2 20.12.2026 -
Matheus Cunha Manchester United Aktiv 156 / 152 40% 1 19.12.2026 -
Yan Diomandé Real Madrid Aktiv 146 / 157 40% 1 15.12.2026 -
Tyler Adams Bournemouth Aktiv 154 / 154 40% 3 14.12.2026 -
Florentino Luís Ipswich Town Aktiv 142 / 137 40% 2 14.12.2026 -
Alexsandro Ribeiro LOSC Lille Aktiv 150 / 147 40% 2 14.12.2026 -
Óscar Mingueza Crystal Palace Aktiv 156 / 145 40% 5 13.12.2026 -
Wesley Fofana Chelsea Aktiv 163 / 164 40% 4 09.12.2026 -
Jurriën Timber Arsenal Aktiv 161 / 164 40% 2 09.12.2026 -
Ousmane Diomande Nottingham Forest Aktiv 146 / 150 40% 3 08.12.2026 -
William Balikwisha OH Leuven Aktiv 119 / 112 40% 2 08.12.2026 -
Jakob Napoleon Romsaas Charleroi Aktiv 125 / 119 40% 1 08.12.2026 -
Anton Stach Leeds United Aktiv 149 / 147 40% 1 08.12.2026 -
Mason Mount Manchester United Aktiv 157 / 149 40% 1 04.12.2026 -
Bruno Guimarães Arsenal Aktiv 174 / 163 40% 3 03.12.2026 -
Gabriel Arsenal Aktiv 174 / 173 40% 3 02.12.2026 -
Quinten Timber Crystal Palace Aktiv 153 / 146 40% 2 27.11.2026 -
Boubacar Kamara Aston Villa Aktiv 165 / 160 40% 2 27.11.2026 -
Alexis Mac Allister Liverpool Aktiv 154 / 155 40% 9 24.11.2026 -
Rico Lewis Manchester City Aktiv 142 / 150 40% 1 24.11.2026 -
Kai Havertz Arsenal Aktiv 161 / 163 40% 2 23.11.2026 -
Tristan Degreef Anderlecht Aktiv 123 / 129 40% 4 19.11.2026 -
Conor Gallagher Tottenham Aktiv 153 / 150 40% 2 14.11.2026 -
Pedro Porro Tottenham Aktiv 144 / 141 40% 1 14.11.2026 -
Nordi Mukiele Sunderland Aktiv 148 / 143 40% 2 11.11.2026 -
Pierre Kalulu Juventus Aktiv 154 / 152 40% 1 11.11.2026 -
Sven Botman Newcastle United Aktiv 163 / 162 40% 1 09.11.2026 -
Richard Gonzalez Chamois Niortais Aktiv 125 / 125 40% 1 05.11.2026 -
Nikolas Sattlberger Racing Genk Aktiv 126 / 126 40% 1 05.11.2026 -
Denis Zakaria Monaco Aktiv 146 / 145 40% 1 04.11.2026 -
Igor Burnley Aktiv 142 / 143 40% 1 04.11.2026 -
Maksim Kireev KV Mechelen Aktiv 117 / 126 40% 1 03.11.2026 -
Isa Sakamoto Westerlo Aktiv 115 / 117 40% 1 03.11.2026 -
Antonee Robinson Fulham Aktiv 153 / 146 40% 1 02.11.2026 -
Kevin Amaro Racing Genk Aktiv 122 / 124 40% 1 29.10.2026 -
Amad Manchester United Aktiv 156 / 150 40% 1 29.10.2026 -
Abdelkahar Kadri KAA Gent Aktiv 121 / 120 40% 1 27.10.2026 -
Nayel Mehssatou KV Kortrijk Aktiv 119 / 118 40% 1 27.10.2026 -
Hector Ramirez Newcastle United Aktiv 153 / 157 40% 3 26.10.2026 -
Myron van Brederode KV Mechelen Aktiv 113 / 121 40% 3 26.10.2026 -
Severin Nioule Charleroi Aktiv 99 / 111 40% 1 26.10.2026 -
Nathan Collins Brentford Aktiv 140 / 147 40% 1 26.10.2026 -
Miloš Kerkez Liverpool Aktiv 149 / 152 40% 2 23.10.2026 -
Lewis Cook Bournemouth Aktiv 147 / 150 40% 1 23.10.2026 -
Adrien Truffert Bournemouth Aktiv 148 / 149 40% 1 21.10.2026 -
Robert-Jan Vanwesemael Sint-Truiden Aktiv 112 / 120 40% 1 20.10.2026 -
Chris Lokesa Waasland-Beveren Aktiv 125 / 124 40% 2 18.10.2026 -
Doğucan Haspolat Westerlo Aktiv 129 / 120 40% 1 18.10.2026 -
William Saliba Arsenal Aktiv 173 / 176 40% 4 16.10.2026 -
Jan Paul van Hecke Tottenham Aktiv 154 / 155 40% 1 14.10.2026 -
Levi Colwill Chelsea Aktiv 157 / 164 40% 2 11.10.2026 -
Gabriel Martinelli Brighton Aktiv 158 / 157 40% 1 08.10.2026 -
James Cardona La Equidad Aktiv 144 / 150 40% 1 08.10.2026 -
Youri Tielemans Manchester United Aktiv 159 / 158 40% 1 07.10.2026 -
Martin Ødegaard Arsenal Aktiv 177 / 174 40% 2 06.10.2026 -
Matty Cash Aston Villa Aktiv 149 / 153 40% 1 29.09.2026 -
Ezri Konsa Arsenal Aktiv 159 / 149 40% 1 25.09.2026 -
Willian Pacho Paris Saint-Germain Aktiv 159 / 164 40% 2 23.09.2026 -
Joaquin Seys Club Brugge Aktiv 120 / 124 40% 1 20.09.2026 -
Benjamin White Arsenal Aktiv 156 / 159 40% 1 15.09.2026 -
Rúben Dias Manchester City Aktiv 170 / 171 40% 2 14.09.2026 -
Yaimar Medina Racing Genk Aktiv 126 / 129 40% 1 11.09.2026 -
Martín Zubimendi Arsenal Aktiv 168 / 159 40% 2 09.09.2026 Mehr Infos nötig
Désiré Doué Paris Saint-Germain Aktiv 152 / 159 40% 1 02.08.2026 -
Micky van de Ven Tottenham Aktiv 148 / 152 40% 1 02.08.2026 -